Time;durP1;ratioP1;P1;durP2;ratioP2;P2;SDS_P1;SDS_P2;PMS_P1;PMS_P2;Temp;Humidity;BMP_temperature;BMP_pressure;BME280_temperature;BME280_humidity;BME280_pressure;Samples;Min_cycle;Max_cycle;Signal;HPM_P1;HPM_P2
2023/08/29 00:01:28;;;;;;;4.35;3.10;;;;;;;24.04;52.32;65528.84;5036254;28;20305;-55
2023/08/29 00:03:56;;;;;;;2.90;2.70;;;;;;;23.97;52.27;65521.09;5016808;28;20202;-57
2023/08/29 00:06:22;;;;;;;3.50;2.85;;;;;;;24.11;52.33;65536.06;5019129;28;20221;-52
2023/08/29 00:08:47;;;;;;;5.15;3.00;;;;;;;24.08;51.99;65533.28;5035064;28;20213;-54
2023/08/29 00:11:12;;;;;;;3.83;3.10;;;;;;;24.05;52.43;65529.41;5036243;28;20245;-55
2023/08/29 00:13:39;;;;;;;3.78;3.03;;;;;;;24.03;52.25;65527.19;5035946;28;20237;-56
2023/08/29 00:16:05;;;;;;;4.20;2.88;;;;;;;24.01;52.74;65525.53;5032096;28;20208;-53
2023/08/29 00:18:37;;;;;;;6.28;3.20;;;;;;;23.91;52.87;65513.88;5033443;28;20250;-53
2023/08/29 00:21:03;;;;;;;5.35;3.10;;;;;;;23.99;52.63;65520.16;5035882;28;20234;-54
2023/08/29 00:23:28;;;;;;;6.03;2.95;;;;;;;23.95;52.86;65520.88;5035929;28;20206;-55
2023/08/29 00:25:54;;;;;;;5.68;2.85;;;;;;;23.98;52.72;65521.63;5033164;28;20226;-52
2023/08/29 00:28:21;;;;;;;5.10;3.17;;;;;;;23.88;53.00;65513.09;5015159;28;20658;-53
2023/08/29 00:30:46;;;;;;;5.45;2.72;;;;;;;23.88;53.35;65507.97;5032998;28;20301;-52
2023/08/29 00:33:12;;;;;;;10.02;3.38;;;;;;;23.71;53.78;65491.69;5035198;28;20216;-52
2023/08/29 00:35:37;;;;;;;3.60;2.90;;;;;;;23.70;53.86;65488.00;5034974;28;20300;-52
2023/08/29 00:38:03;;;;;;;9.63;2.85;;;;;;;23.84;53.77;65504.09;5031933;22;20312;-52
2023/08/29 00:40:32;;;;;;;6.38;3.20;;;;;;;23.82;54.29;65504.44;5053984;28;20212;-56
2023/08/29 00:43:02;;;;;;;4.72;3.35;;;;;;;23.91;53.84;65514.44;5034068;28;20718;-54
2023/08/29 00:45:30;;;;;;;5.57;3.28;;;;;;;23.81;53.86;65502.78;5034094;28;20697;-54
2023/08/29 00:47:56;;;;;;;3.88;2.70;;;;;;;23.72;54.03;65492.81;5035623;28;20221;-56
2023/08/29 00:50:22;;;;;;;5.10;2.95;;;;;;;23.75;54.56;65493.56;5036116;28;20224;-52
2023/08/29 00:52:48;;;;;;;4.57;3.00;;;;;;;23.65;54.51;65482.47;5034618;28;20220;-58
2023/08/29 00:55:15;;;;;;;4.10;2.97;;;;;;;23.73;54.19;65494.47;5034839;28;20528;-52
2023/08/29 00:57:41;;;;;;;3.95;2.80;;;;;;;23.64;54.68;65481.34;5015846;28;20222;-56
2023/08/29 01:00:07;;;;;;;3.33;3.03;;;;;;;23.63;55.13;65482.84;5036195;28;20194;-52
2023/08/29 01:02:35;;;;;;;3.85;3.17;;;;;;;23.57;55.00;65476.75;5000311;28;20260;-55
2023/08/29 01:05:00;;;;;;;9.73;3.38;;;;;;;23.44;55.24;65461.78;5035679;28;20182;-55
2023/08/29 01:07:26;;;;;;;6.90;3.17;;;;;;;23.43;55.38;65460.69;5034698;28;20224;-56
2023/08/29 01:09:52;;;;;;;8.23;3.40;;;;;;;23.32;56.12;65449.59;5017039;28;20323;-54
2023/08/29 01:12:21;;;;;;;5.50;3.08;;;;;;;23.35;56.16;65450.34;5034264;28;20202;-55
2023/08/29 01:14:52;;;;;;;5.32;2.92;;;;;;;23.49;55.63;65465.31;5035352;28;20233;-56
2023/08/29 01:17:30;;;;;;;4.80;2.40;;;;;;;23.28;55.85;65444.59;5035565;28;20263;-55
2023/08/29 01:19:56;;;;;;;8.05;3.30;;;;;;;23.27;56.57;65444.03;5034164;28;20297;-57
2023/08/29 01:22:53;;;;;;;8.32;3.42;;;;;;;23.22;56.51;65437.94;5034132;28;20226;-52
2023/08/29 01:25:42;;;;;;;6.97;3.42;;;;;;;23.26;56.44;65440.34;5015058;28;20267;-55
2023/08/29 01:28:09;;;;;;;5.72;3.55;;;;;;;23.22;56.89;65438.50;5032292;28;20218;-53
2023/08/29 01:30:38;;;;;;;3.33;2.88;;;;;;;23.25;56.85;65438.69;5034835;28;20267;-52
2023/08/29 01:33:03;;;;;;;6.95;2.90;;;;;;;23.21;56.84;65439.94;5033646;28;20229;-53
2023/08/29 01:35:29;;;;;;;5.25;3.40;;;;;;;23.12;57.86;65424.84;5032953;28;20277;-55
2023/08/29 01:37:55;;;;;;;3.83;2.75;;;;;;;23.05;57.56;65421.66;5033759;28;20562;-53
2023/08/29 01:40:21;;;;;;;6.57;3.08;;;;;;;22.89;58.06;65401.94;5035082;28;20202;-52
2023/08/29 01:42:49;;;;;;;3.33;2.95;;;;;;;22.90;58.18;65402.50;5033932;28;20597;-57
2023/08/29 01:45:16;;;;;;;5.03;3.33;;;;;;;22.88;58.51;65400.28;5033654;28;20652;-54
2023/08/29 01:47:42;;;;;;;4.32;2.85;;;;;;;22.85;58.91;65397.50;5033075;28;20218;-53
2023/08/29 01:50:12;;;;;;;8.13;4.85;;;;;;;22.77;59.18;65388.09;5035589;28;20209;-57
2023/08/29 01:52:38;;;;;;;4.82;3.22;;;;;;;22.86;59.13;65398.63;5034093;28;20246;-52
2023/08/29 01:55:04;;;;;;;4.78;3.40;;;;;;;22.89;58.71;65404.50;5035187;28;20248;-51
2023/08/29 01:57:35;;;;;;;5.13;3.25;;;;;;;22.76;59.35;65389.56;5070148;22;20586;-53
2023/08/29 02:00:04;;;;;;;5.75;3.20;;;;;;;22.77;59.34;65386.06;5057990;28;20204;-58
2023/08/29 02:02:29;;;;;;;7.07;3.30;;;;;;;22.71;59.67;65382.00;5078098;28;20230;-55
2023/08/29 02:04:55;;;;;;;4.93;2.80;;;;;;;22.66;59.89;65379.03;5076249;28;20197;-54
2023/08/29 02:07:22;;;;;;;3.83;3.35;;;;;;;22.56;60.23;65365.38;5076625;28;20220;-55
2023/08/29 02:09:47;;;;;;;4.28;3.28;;;;;;;22.58;60.15;65372.75;5075730;28;20196;-54
2023/08/29 02:12:13;;;;;;;4.90;3.15;;;;;;;22.52;60.22;65363.53;5057684;28;20243;-54
2023/08/29 02:14:38;;;;;;;7.07;3.80;;;;;;;22.38;60.41;65348.56;5076246;28;20197;-53
2023/08/29 02:17:05;;;;;;;3.92;3.20;;;;;;;22.51;60.52;65360.38;5077040;28;20220;-52
2023/08/29 02:19:30;;;;;;;4.90;2.78;;;;;;;22.42;60.91;65352.97;5076413;28;20674;-53
2023/08/29 02:21:56;;;;;;;6.60;3.33;;;;;;;22.33;61.33;65339.91;5078376;28;20219;-54
2023/08/29 02:24:22;;;;;;;3.90;3.10;;;;;;;22.35;61.42;65342.69;5075567;28;20200;-51
2023/08/29 02:26:47;;;;;;;4.85;3.38;;;;;;;22.32;61.56;65341.38;5076026;28;20246;-52
2023/08/29 02:29:13;;;;;;;5.63;2.90;;;;;;;22.12;62.16;65317.22;5076623;28;20224;-56
2023/08/29 02:31:38;;;;;;;4.32;2.97;;;;;;;22.06;62.31;65312.59;5075883;28;20712;-54
2023/08/29 02:34:04;;;;;;;6.30;3.58;;;;;;;22.07;62.67;65311.13;5075699;28;20246;-56
2023/08/29 02:36:29;;;;;;;4.78;3.53;;;;;;;22.08;62.62;65315.34;5074686;28;20221;-58
2023/08/29 02:38:55;;;;;;;4.65;3.50;;;;;;;22.28;62.19;65334.38;5075471;28;20192;-54
2023/08/29 02:41:20;;;;;;;4.90;2.83;;;;;;;22.40;61.97;65347.66;5075447;28;20213;-52
2023/08/29 02:43:46;;;;;;;5.80;3.25;;;;;;;22.33;61.59;65342.47;5075632;28;20256;-55
2023/08/29 02:46:11;;;;;;;5.05;3.28;;;;;;;22.20;62.09;65326.06;5075496;28;20205;-53
2023/08/29 02:48:37;;;;;;;4.28;3.40;;;;;;;22.28;61.94;65336.94;5076293;28;20208;-55
2023/08/29 02:51:02;;;;;;;6.05;3.70;;;;;;;22.25;62.49;65328.47;5076714;28;20205;-52
2023/08/29 02:53:29;;;;;;;5.85;3.33;;;;;;;22.37;61.91;65342.31;5075445;28;20201;-58
2023/08/29 02:55:56;;;;;;;5.43;3.45;;;;;;;22.27;62.21;65333.81;5075497;28;20204;-55
2023/08/29 02:58:22;;;;;;;6.13;3.80;;;;;;;22.14;62.83;65318.88;5074018;28;20610;-53
2023/08/29 03:00:55;;;;;;;9.15;3.72;;;;;;;22.15;62.45;65320.53;5074669;28;20283;-55
2023/08/29 03:03:21;;;;;;;5.72;3.53;;;;;;;22.08;63.08;65312.25;5073496;28;20200;-54
2023/08/29 03:05:57;;;;;;;3.83;3.25;;;;;;;21.99;63.23;65304.84;5074979;28;20201;-56
2023/08/29 03:08:24;;;;;;;5.60;3.42;;;;;;;22.06;62.96;65313.13;5074384;28;20719;-52
2023/08/29 03:10:50;;;;;;;5.13;3.20;;;;;;;22.02;63.25;65306.16;5074550;28;20722;-53
2023/08/29 03:13:17;;;;;;;3.88;3.53;;;;;;;22.03;63.35;65304.13;5075785;28;20207;-53
2023/08/29 03:15:46;;;;;;;8.45;3.60;;;;;;;22.02;63.53;65305.59;5076727;28;20235;-53
2023/08/29 03:18:12;;;;;;;4.55;3.28;;;;;;;22.20;63.15;65328.09;5074633;28;20192;-53
2023/08/29 03:20:44;;;;;;;4.38;3.40;;;;;;;22.15;63.05;65317.41;5076463;28;20215;-54
2023/08/29 03:23:13;;;;;;;6.65;3.38;;;;;;;21.98;63.68;65301.19;5074434;28;20251;-56
2023/08/29 03:25:39;;;;;;;6.13;3.05;;;;;;;21.99;63.55;65299.72;5075875;28;20235;-53
2023/08/29 03:28:05;;;;;;;7.38;3.72;;;;;;;21.92;63.94;65294.53;5074403;28;20240;-54
2023/08/29 03:30:33;;;;;;;8.10;3.30;;;;;;;21.97;63.80;65302.63;5075450;28;20550;-53
2023/08/29 03:32:58;;;;;;;7.97;3.38;;;;;;;21.86;64.42;65287.88;5076171;28;20216;-53
2023/08/29 03:35:23;;;;;;;4.93;3.03;;;;;;;21.87;64.24;65289.56;5075091;28;20185;-54
2023/08/29 03:37:49;;;;;;;4.03;3.05;;;;;;;21.83;64.61;65284.56;5076745;28;20219;-56
2023/08/29 03:40:15;;;;;;;3.97;3.33;;;;;;;21.77;64.72;65279.00;5076968;28;20188;-52
2023/08/29 03:42:40;;;;;;;6.57;3.55;;;;;;;21.94;64.47;65299.84;5075133;28;20204;-51
2023/08/29 03:45:06;;;;;;;7.60;3.15;;;;;;;21.97;64.06;65305.75;5074145;28;20197;-54
2023/08/29 03:47:33;;;;;;;3.63;3.33;;;;;;;21.89;64.70;65291.78;5075215;28;20262;-55
2023/08/29 03:49:59;;;;;;;4.30;3.58;;;;;;;21.92;64.28;65294.53;5075612;28;20193;-51
2023/08/29 03:52:26;;;;;;;4.88;3.05;;;;;;;21.81;64.83;65285.47;5073375;28;20287;-52
2023/08/29 03:54:56;;;;;;;7.00;3.28;;;;;;;21.83;64.76;65285.13;5073443;28;20288;-52
2023/08/29 03:57:28;;;;;;;6.95;3.72;;;;;;;21.75;65.36;65279.38;5072915;28;20213;-55
2023/08/29 03:59:56;;;;;;;5.70;4.05;;;;;;;21.88;65.10;65290.09;5072717;28;20203;-52
2023/08/29 04:02:22;;;;;;;6.85;3.28;;;;;;;21.89;64.98;65293.78;5070988;28;20224;-54
2023/08/29 04:04:52;;;;;;;7.82;3.88;;;;;;;21.78;65.21;65282.13;5072130;28;20642;-55
2023/08/29 04:07:17;;;;;;;6.05;3.38;;;;;;;21.86;64.92;65285.31;5071854;28;20666;-56
2023/08/29 04:09:43;;;;;;;6.30;3.33;;;;;;;21.79;65.21;65280.13;5071684;28;20291;-52
2023/08/29 04:12:10;;;;;;;4.43;3.50;;;;;;;21.78;65.38;65279.56;5070785;28;20227;-53
2023/08/29 04:14:36;;;;;;;5.20;3.80;;;;;;;21.88;65.18;65290.66;5070218;28;20235;-51
2023/08/29 04:17:03;;;;;;;4.57;3.63;;;;;;;21.77;65.32;65279.00;5070187;28;20702;-51
2023/08/29 04:19:30;;;;;;;6.45;3.05;;;;;;;21.71;65.60;65269.81;5071110;28;20204;-52
2023/08/29 04:21:56;;;;;;;4.78;3.50;;;;;;;21.88;64.99;65290.09;5071183;28;20299;-52
2023/08/29 04:24:22;;;;;;;5.40;3.25;;;;;;;22.03;65.09;65309.28;5071757;28;20200;-54
2023/08/29 04:26:48;;;;;;;6.25;3.90;;;;;;;21.94;64.33;65296.75;5071345;28;20235;-54
2023/08/29 04:29:13;;;;;;;8.00;3.53;;;;;;;22.16;64.29;65318.53;5071394;28;20212;-53
2023/08/29 04:31:39;;;;;;;9.50;3.67;;;;;;;22.01;67.12;65307.63;5071590;28;20212;-52
2023/08/29 04:34:04;;;;;;;4.97;4.30;;;;;;;22.53;69.70;65362.03;5071148;28;20165;-57
2023/08/29 04:36:30;;;;;;;5.05;3.70;;;;;;;22.73;61.96;65384.22;5071125;28;20341;-53
2023/08/29 04:38:55;;;;;;;4.05;3.40;;;;;;;22.68;63.49;65376.13;5071139;28;20626;-52
2023/08/29 04:41:21;;;;;;;4.10;3.40;;;;;;;22.72;61.68;65380.00;5071025;28;20210;-54
2023/08/29 04:43:46;;;;;;;4.95;3.33;;;;;;;22.46;63.12;65351.75;5082801;22;20287;-54
2023/08/29 04:46:12;;;;;;;4.90;3.85;;;;;;;22.34;63.12;65341.03;5070965;28;20231;-52
2023/08/29 04:48:37;;;;;;;4.45;2.50;;;;;;;22.20;63.74;65320.94;5070683;28;20266;-52
2023/08/29 04:51:06;;;;;;;6.22;3.70;;;;;;;22.30;66.75;65339.69;5070662;28;20242;-51
2023/08/29 04:53:33;;;;;;;6.50;3.38;;;;;;;22.56;62.15;65367.94;5071080;28;20273;-52
2023/08/29 04:56:03;;;;;;;6.72;3.53;;;;;;;22.48;62.04;65353.94;5070427;28;20200;-51
2023/08/29 04:58:29;;;;;;;5.88;3.13;;;;;;;22.21;63.22;65324.06;5071000;28;20244;-52
2023/08/29 05:00:55;;;;;;;6.97;3.28;;;;;;;22.05;63.81;65308.91;5070765;28;20207;-58
2023/08/29 05:03:21;;;;;;;8.75;4.88;;;;;;;22.10;65.19;65314.47;5070831;28;20216;-51
2023/08/29 05:05:48;;;;;;;4.97;3.50;;;;;;;22.23;64.92;65328.84;5070596;28;20288;-52
2023/08/29 05:08:13;;;;;;;5.20;3.38;;;;;;;22.52;63.24;65360.94;5070675;28;20248;-52
2023/08/29 05:10:39;;;;;;;5.18;3.15;;;;;;;22.55;62.38;65364.25;5070587;28;20292;-52
2023/08/29 05:13:04;;;;;;;9.05;3.25;;;;;;;22.49;62.70;65360.19;5070253;28;20208;-55
2023/08/29 05:15:33;;;;;;;13.52;8.00;;;;;;;22.71;64.38;65382.00;5070456;28;20210;-55
2023/08/29 05:17:59;;;;;;;6.43;3.58;;;;;;;22.80;61.73;65394.53;5069217;28;20220;-53
2023/08/29 05:20:26;;;;;;;6.40;3.10;;;;;;;22.93;61.62;65406.38;5070201;28;20200;-54
2023/08/29 05:22:51;;;;;;;7.00;3.53;;;;;;;22.93;60.90;65406.38;5070595;28;20596;-54
2023/08/29 05:25:17;;;;;;;5.93;3.50;;;;;;;22.86;60.89;65398.63;5070212;28;20203;-56
2023/08/29 05:27:42;;;;;;;6.75;3.60;;;;;;;23.00;59.76;65411.00;5070210;28;20221;-54
2023/08/29 05:30:08;;;;;;;5.60;3.75;;;;;;;23.04;60.04;65415.97;5070579;28;20334;-56
2023/08/29 05:32:37;;;;;;;4.63;3.35;;;;;;;22.99;59.77;65413.00;5069873;28;20205;-52
2023/08/29 05:35:02;;;;;;;4.65;3.33;;;;;;;22.95;59.68;65408.56;5070010;28;20306;-52
2023/08/29 05:37:28;;;;;;;4.63;3.20;;;;;;;23.04;59.23;65415.44;5069933;28;20216;-53
2023/08/29 05:39:54;;;;;;;4.50;3.25;;;;;;;23.17;59.68;65432.38;5068330;28;20223;-55
2023/08/29 05:42:20;;;;;;;3.90;3.47;;;;;;;23.35;60.74;65455.47;5068665;28;20369;-54
2023/08/29 05:44:45;;;;;;;5.05;3.58;;;;;;;23.48;58.39;65464.19;5067606;28;20197;-53
2023/08/29 05:47:11;;;;;;;4.60;3.13;;;;;;;23.53;60.10;65469.19;5068487;28;20317;-54
2023/08/29 05:49:37;;;;;;;6.57;3.78;;;;;;;23.75;57.39;65496.13;5070603;28;20215;-53
2023/08/29 05:52:02;;;;;;;3.28;2.85;;;;;;;23.66;56.84;65486.16;5069727;28;20254;-54
2023/08/29 05:54:28;;;;;;;5.43;2.95;;;;;;;23.61;56.31;65480.63;5069752;28;20193;-54
2023/08/29 05:56:54;;;;;;;7.40;3.72;;;;;;;23.49;56.36;65467.31;5069802;28;20212;-53
2023/08/29 05:59:19;;;;;;;3.80;3.10;;;;;;;23.66;57.05;65486.72;5069871;28;20227;-56
2023/08/29 06:01:45;;;;;;;7.10;3.85;;;;;;;23.70;56.03;65490.59;5069476;28;20591;-55
2023/08/29 06:04:10;;;;;;;5.90;3.60;;;;;;;23.65;56.51;65482.47;5070280;28;20199;-51
2023/08/29 06:06:39;;;;;;;7.18;3.58;;;;;;;23.62;58.37;65481.72;5069750;28;20287;-52
2023/08/29 06:09:10;;;;;;;5.88;3.78;;;;;;;23.72;56.85;65490.78;5069946;28;20686;-52
2023/08/29 06:11:37;;;;;;;6.18;3.55;;;;;;;23.80;55.93;65502.22;5069784;28;20591;-55
2023/08/29 06:14:02;;;;;;;7.15;3.60;;;;;;;23.89;55.66;65511.66;5069520;28;20212;-60
2023/08/29 06:16:27;;;;;;;7.55;3.85;;;;;;;24.03;57.94;65527.75;5069915;28;20285;-57
2023/08/29 06:18:53;;;;;;;4.20;3.22;;;;;;;23.92;56.10;65515.53;5069429;28;20201;-55
2023/08/29 06:21:19;;;;;;;6.53;3.42;;;;;;;24.03;57.78;65527.19;5068364;28;20750;-54
2023/08/29 06:23:45;;;;;;;8.32;4.80;;;;;;;24.23;56.09;65549.38;5069784;28;20205;-55
2023/08/29 06:26:11;;;;;;;5.25;4.25;;;;;;;24.36;55.60;65560.66;5069180;28;20208;-56
2023/08/29 06:28:38;;;;;;;10.07;4.25;;;;;;;24.65;58.75;65593.38;5069550;28;20252;-56
2023/08/29 06:31:04;;;;;;;9.32;3.38;;;;;;;24.90;58.94;65623.72;5069108;28;20212;-54
2023/08/29 06:33:30;;;;;;;8.23;4.05;;;;;;;25.16;59.42;65649.44;5069253;28;20289;-55
2023/08/29 06:35:57;;;;;;;8.57;4.15;;;;;;;25.27;56.52;65661.63;5069309;28;20193;-56
2023/08/29 06:38:22;;;;;;;7.53;3.33;;;;;;;25.36;59.47;65671.06;5069044;28;20706;-55
2023/08/29 06:40:55;;;;;;;8.30;3.75;;;;;;;25.35;56.63;65667.38;5070445;28;20326;-53
2023/08/29 06:43:22;;;;;;;19.00;4.53;;;;;;;25.54;57.10;65693.66;5072404;28;20213;-52
2023/08/29 06:45:47;;;;;;;8.63;4.50;;;;;;;25.64;52.64;65702.16;5071909;28;20670;-55
2023/08/29 06:48:13;;;;;;;6.63;3.88;;;;;;;25.53;52.61;65687.38;5072532;28;20213;-56
2023/08/29 06:50:39;;;;;;;12.77;4.38;;;;;;;25.24;53.88;65658.31;5072812;28;20212;-54
2023/08/29 06:53:05;;;;;;;8.50;4.40;;;;;;;25.06;56.62;65640.91;5072505;28;20285;-58
2023/08/29 06:55:33;;;;;;;6.93;3.85;;;;;;;25.22;57.10;65655.53;5071073;28;20535;-56
2023/08/29 06:57:58;;;;;;;7.03;4.60;;;;;;;25.34;56.71;65671.97;5072331;28;20224;-60
2023/08/29 07:00:24;;;;;;;7.05;4.82;;;;;;;25.48;55.88;65684.41;5072141;28;20334;-56
2023/08/29 07:02:52;;;;;;;6.53;4.75;;;;;;;25.67;53.60;65705.50;5072767;28;20212;-57
2023/08/29 07:05:18;;;;;;;7.38;4.63;;;;;;;25.78;56.59;65717.69;5072196;28;20205;-55
2023/08/29 07:07:43;;;;;;;8.05;4.10;;;;;;;25.93;51.42;65733.81;5072400;28;20330;-57
2023/08/29 07:10:10;;;;;;;6.78;4.07;;;;;;;25.96;51.44;65737.16;5070750;28;20287;-55
2023/08/29 07:12:36;;;;;;;5.53;4.20;;;;;;;25.81;52.53;65721.03;5072268;28;20295;-56
2023/08/29 07:15:02;;;;;;;4.55;3.75;;;;;;;25.81;51.05;65721.03;5072336;28;20288;-55
2023/08/29 07:17:28;;;;;;;6.38;4.55;;;;;;;25.75;50.93;65714.38;5072100;28;20694;-55
2023/08/29 07:19:54;;;;;;;8.30;4.40;;;;;;;25.70;50.71;65711.41;5070985;28;20279;-53
2023/08/29 07:22:19;;;;;;;5.50;3.97;;;;;;;25.82;50.23;65721.59;5070818;28;20695;-52
2023/08/29 07:24:45;;;;;;;6.13;4.07;;;;;;;25.83;50.49;65723.25;5072473;28;20254;-59
2023/08/29 07:27:11;;;;;;;5.97;3.95;;;;;;;25.87;50.74;65725.13;5072048;28;20607;-56
2023/08/29 07:29:36;;;;;;;8.00;4.15;;;;;;;25.71;51.14;65709.94;5072286;28;20219;-52
2023/08/29 07:32:02;;;;;;;4.75;3.63;;;;;;;25.78;51.53;65718.25;5072566;28;20205;-54
2023/08/29 07:34:27;;;;;;;9.80;4.65;;;;;;;25.85;51.57;65725.47;5072651;28;20192;-53
2023/08/29 07:37:00;;;;;;;6.35;3.67;;;;;;;26.01;50.75;65745.28;5072018;28;20295;-52
2023/08/29 07:39:26;;;;;;;7.32;3.95;;;;;;;25.94;52.30;65735.47;5071720;28;20205;-52
2023/08/29 07:41:52;;;;;;;6.03;3.58;;;;;;;25.77;51.98;65717.16;5070819;28;20594;-52
2023/08/29 07:44:17;;;;;;;5.40;3.67;;;;;;;25.99;52.23;65743.63;5069773;28;20211;-52
2023/08/29 07:46:43;;;;;;;7.30;4.50;;;;;;;25.91;51.87;65731.59;5071559;28;20201;-52
2023/08/29 07:49:13;;;;;;;9.90;3.40;;;;;;;25.92;51.26;65730.66;5071829;28;20262;-53
2023/08/29 07:51:40;;;;;;;6.72;4.18;;;;;;;26.09;50.69;65749.56;5063990;28;20215;-54
2023/08/29 07:54:07;;;;;;;6.60;4.53;;;;;;;26.32;50.68;65777.69;5062600;28;20220;-59
2023/08/29 07:56:32;;;;;;;9.80;4.32;;;;;;;26.44;49.80;65791.03;5060161;28;20212;-57
2023/08/29 07:58:58;;;;;;;5.68;4.32;;;;;;;26.31;50.29;65776.59;5063298;28;20188;-52
2023/08/29 08:01:23;;;;;;;10.73;6.38;;;;;;;26.27;50.31;65769.56;5059524;28;20221;-55
2023/08/29 08:03:50;;;;;;;7.40;5.05;;;;;;;26.54;50.52;65801.59;5062710;28;20205;-53
2023/08/29 08:06:15;;;;;;;4.55;4.15;;;;;;;26.68;49.55;65817.16;5063744;28;20219;-52
2023/08/29 08:08:40;;;;;;;7.32;4.25;;;;;;;26.93;47.54;65841.78;5053475;28;20244;-52
2023/08/29 08:11:06;;;;;;;7.10;4.18;;;;;;;26.95;48.90;65847.16;5062629;28;20204;-52
2023/08/29 08:13:34;;;;;;;8.10;4.32;;;;;;;27.22;47.42;65876.63;5062716;28;20209;-55
2023/08/29 08:15:59;;;;;;;6.53;3.67;;;;;;;27.37;48.39;65888.16;5064768;28;20208;-55
2023/08/29 08:18:33;;;;;;;6.22;4.15;;;;;;;27.45;46.54;65899.63;5064260;28;20197;-57
2023/08/29 08:21:00;;;;;;;13.20;5.20;;;;;;;27.63;47.39;65922.25;5052892;28;20201;-52
2023/08/29 08:23:26;;;;;;;9.27;4.40;;;;;;;27.88;46.42;65947.44;5061540;28;20202;-53
2023/08/29 08:25:51;;;;;;;7.05;4.50;;;;;;;28.08;44.56;65969.16;5062660;28;20202;-52
2023/08/29 08:28:16;;;;;;;7.10;4.13;;;;;;;27.93;44.96;65953.03;5058946;28;20622;-52
2023/08/29 08:30:42;;;;;;;9.48;4.07;;;;;;;27.68;45.17;65927.78;5058547;28;20281;-52
2023/08/29 08:33:07;;;;;;;5.47;4.68;;;;;;;27.42;45.80;65898.88;5059894;28;20204;-52
2023/08/29 08:35:34;;;;;;;5.88;4.25;;;;;;;27.36;46.64;65890.19;5068768;28;20195;-51
2023/08/29 08:38:01;;;;;;;10.40;7.07;;;;;;;26.96;47.14;65850.88;5070903;28;20216;-52
2023/08/29 08:40:28;;;;;;;7.03;4.57;;;;;;;27.35;46.71;65891.13;5069516;28;20216;-52
2023/08/29 08:42:54;;;;;;;5.70;4.38;;;;;;;27.40;45.57;65896.66;5069517;28;20216;-55
2023/08/29 08:45:22;;;;;;;8.27;4.38;;;;;;;27.66;47.74;65925.56;5069512;28;20201;-56
2023/08/29 08:47:48;;;;;;;7.07;4.43;;;;;;;28.15;46.43;65976.94;5070849;28;20239;-53
2023/08/29 08:50:14;;;;;;;7.32;4.53;;;;;;;28.34;45.73;66000.13;5068500;28;20290;-53
2023/08/29 08:52:42;;;;;;;6.70;4.22;;;;;;;28.66;44.06;66033.16;5054116;28;20778;-56
2023/08/29 08:55:08;;;;;;;10.35;6.53;;;;;;;28.70;45.06;66040.78;5050567;28;20233;-54
2023/08/29 08:57:34;;;;;;;7.63;4.07;;;;;;;29.09;44.26;66080.50;5050990;28;20673;-54
2023/08/29 08:59:59;;;;;;;44.40;27.73;;;;;;;29.12;42.96;66086.97;5050872;28;20212;-59
2023/08/29 09:02:26;;;;;;;23.00;13.77;;;;;;;28.94;41.88;66064.91;5055830;28;20634;-53
2023/08/29 09:04:53;;;;;;;10.70;7.10;;;;;;;28.41;43.01;66002.72;5059439;28;20206;-53
2023/08/29 09:07:19;;;;;;;7.18;4.72;;;;;;;28.46;43.28;66013.50;5061655;28;20287;-56
2023/08/29 09:10:04;;;;;;;7.38;4.03;;;;;;;29.03;43.17;66074.91;5060891;28;20254;-54
2023/08/29 09:12:30;;;;;;;8.45;5.05;;;;;;;28.87;43.32;66056.53;5059180;28;20220;-54
2023/08/29 09:14:55;;;;;;;5.93;4.13;;;;;;;29.03;41.53;66071.75;5052201;28;20201;-54
2023/08/29 09:17:23;;;;;;;5.40;4.40;;;;;;;29.02;41.59;66075.84;5070227;28;21730;-53
2023/08/29 09:19:48;;;;;;;12.23;10.23;;;;;;;28.61;43.22;66030.75;5070142;28;20283;-53
2023/08/29 09:22:14;;;;;;;5.88;4.60;;;;;;;28.83;42.44;66055.25;5070105;28;20357;-54
2023/08/29 09:24:39;;;;;;;10.27;4.30;;;;;;;28.83;43.31;66055.25;5070250;28;20270;-54
2023/08/29 09:27:11;;;;;;;42.90;15.27;;;;;;;28.60;43.61;66027.06;5068622;22;20723;-55
2023/08/29 09:29:37;;;;;;;5.22;4.47;;;;;;;28.83;43.08;66054.69;5032254;28;20326;-54
2023/08/29 09:32:13;;;;;;;14.45;8.48;;;;;;;28.50;43.58;66015.34;5032236;28;20598;-55
2023/08/29 09:34:39;;;;;;;6.55;4.43;;;;;;;28.55;43.66;66024.06;5032267;28;20223;-56
2023/08/29 09:37:07;;;;;;;5.90;4.15;;;;;;;28.52;43.76;66014.97;5049816;28;20665;-56
2023/08/29 09:39:34;;;;;;;9.20;5.15;;;;;;;28.57;44.22;66026.31;5050196;28;20193;-55
2023/08/29 09:42:03;;;;;;;9.77;4.20;;;;;;;28.62;44.48;66028.72;5050056;28;20309;-55
2023/08/29 09:44:33;;;;;;;8.10;4.57;;;;;;;28.31;44.26;65996.78;5050697;28;20173;-54
2023/08/29 09:46:59;;;;;;;5.85;4.90;;;;;;;28.25;45.15;65988.06;5050094;28;20300;-53
2023/08/29 09:49:32;;;;;;;29.08;13.27;;;;;;;28.14;45.20;65978.41;5048999;28;20308;-58
2023/08/29 09:52:01;;;;;;;11.65;6.22;;;;;;;28.14;45.65;65976.38;5048171;28;20304;-54
2023/08/29 09:54:30;;;;;;;9.38;4.47;;;;;;;28.27;44.87;65989.75;5049533;28;20694;-54
2023/08/29 09:57:03;;;;;;;6.72;4.40;;;;;;;28.19;45.35;65984.00;5049654;28;20778;-54
2023/08/29 09:59:31;;;;;;;7.82;5.07;;;;;;;28.12;45.99;65973.59;5049723;28;20331;-53
2023/08/29 10:01:58;;;;;;;5.75;4.05;;;;;;;28.10;45.31;65971.94;5049877;28;20679;-54
2023/08/29 10:04:25;;;;;;;9.43;6.05;;;;;;;27.86;46.32;65945.22;5049613;28;20305;-53
2023/08/29 10:06:55;;;;;;;7.97;4.72;;;;;;;27.90;45.76;65952.25;5039288;22;20229;-53
2023/08/29 10:09:21;;;;;;;10.32;6.38;;;;;;;27.87;46.78;65948.94;5049640;28;20216;-56
2023/08/29 10:11:49;;;;;;;8.43;5.00;;;;;;;28.08;45.98;65969.72;5031103;28;20205;-53
2023/08/29 10:14:16;;;;;;;8.93;4.72;;;;;;;28.19;45.99;65984.00;5048424;28;20177;-53
2023/08/29 10:16:43;;;;;;;7.32;5.68;;;;;;;28.29;46.16;65992.53;5050408;28;20198;-55
2023/08/29 10:19:12;;;;;;;13.02;9.05;;;;;;;28.22;45.59;65985.28;5052311;28;20205;-54
2023/08/29 10:21:42;;;;;;;6.07;4.80;;;;;;;28.41;45.12;66007.91;5052927;28;20224;-53
2023/08/29 10:24:08;;;;;;;9.18;6.38;;;;;;;28.36;45.30;66002.34;5051262;28;20197;-53
2023/08/29 10:26:36;;;;;;;6.65;4.53;;;;;;;28.51;44.62;66017.00;5052839;28;20205;-53
2023/08/29 10:29:01;;;;;;;7.70;5.25;;;;;;;28.54;44.51;66022.94;5052691;28;20220;-53
2023/08/29 10:31:28;;;;;;;5.95;4.35;;;;;;;28.55;44.79;66023.50;5052734;28;20210;-55
2023/08/29 10:33:57;;;;;;;6.38;4.47;;;;;;;28.51;45.11;66019.59;5052873;28;20192;-53
2023/08/29 10:36:25;;;;;;;9.85;4.22;;;;;;;28.63;43.89;66032.41;5052588;28;20218;-53
2023/08/29 10:38:50;;;;;;;5.18;4.22;;;;;;;28.48;45.20;66015.72;5034547;28;20213;-54
2023/08/29 10:41:16;;;;;;;6.07;4.70;;;;;;;28.41;44.95;66008.47;5052527;28;20780;-54
2023/08/29 10:43:42;;;;;;;7.47;4.50;;;;;;;28.34;46.42;66000.13;5052638;28;20306;-54
2023/08/29 10:46:10;;;;;;;8.27;4.75;;;;;;;28.44;46.90;66011.25;5052968;28;20695;-54
2023/08/29 10:48:39;;;;;;;5.55;4.45;;;;;;;28.30;45.02;65996.22;5052462;28;20214;-53
2023/08/29 10:51:10;;;;;;;8.95;6.03;;;;;;;28.18;46.94;65983.44;5052423;28;20213;-54
2023/08/29 10:53:49;;;;;;;6.45;4.40;;;;;;;28.19;46.13;65981.97;5052590;28;20225;-54
2023/08/29 10:56:20;;;;;;;8.85;4.38;;;;;;;28.08;46.04;65969.16;5034570;28;20308;-52
2023/08/29 10:58:54;;;;;;;6.60;4.70;;;;;;;28.11;46.40;65973.06;5052432;28;20216;-54
2023/08/29 11:01:30;;;;;;;9.55;5.97;;;;;;;28.06;47.22;65967.50;5052031;28;20221;-54
2023/08/29 11:03:59;;;;;;;13.38;4.90;;;;;;;27.83;47.21;65943.94;5052331;28;20213;-53
2023/08/29 11:06:52;;;;;;;7.88;5.03;;;;;;;28.03;45.63;65966.75;5052544;28;20220;-53
2023/08/29 11:09:22;;;;;;;7.80;4.40;;;;;;;28.07;45.69;65968.06;5052093;28;20696;-55
2023/08/29 11:12:07;;;;;;;9.23;4.78;;;;;;;28.10;45.79;65971.94;5052027;28;20209;-54
2023/08/29 11:14:58;;;;;;;7.53;4.47;;;;;;;28.14;45.94;65975.84;5052158;28;20197;-54
2023/08/29 11:17:25;;;;;;;5.88;4.03;;;;;;;28.01;45.92;65964.53;5052038;28;20767;-54
2023/08/29 11:19:58;;;;;;;7.72;4.18;;;;;;;28.03;46.71;65966.75;5034024;28;20598;-55
2023/08/29 11:22:29;;;;;;;8.52;4.60;;;;;;;28.07;45.95;65970.66;5052013;28;20300;-54
2023/08/29 11:24:55;;;;;;;7.03;4.60;;;;;;;28.01;46.21;65961.38;5052237;28;20225;-56
2023/08/29 11:27:23;;;;;;;8.02;4.20;;;;;;;28.05;46.00;65968.97;5051677;28;20221;-54
2023/08/29 11:29:48;;;;;;;9.13;5.22;;;;;;;27.95;46.71;65954.69;5051831;28;20217;-59
2023/08/29 11:32:16;;;;;;;7.55;5.05;;;;;;;28.10;45.96;65973.97;5051853;28;20236;-57